Time;durP1;ratioP1;P1;durP2;ratioP2;P2;SDS_P1;SDS_P2;PMS_P1;PMS_P2;Temp;Humidity;BMP_temperature;BMP_pressure;BME280_temperature;BME280_humidity;BME280_pressure;Samples;Min_cycle;Max_cycle;Signal;HPM_P1;HPM_P2
2022/05/22 00:01:24;;;;;;;8.52;5.00;;;18.80;81.00;;;;;;5073505;28;20481;-59
2022/05/22 00:03:50;;;;;;;9.25;4.75;;;18.70;81.20;;;;;;5073417;28;20029;-58
2022/05/22 00:06:15;;;;;;;9.20;4.82;;;18.70;81.50;;;;;;5073854;28;20071;-59
2022/05/22 00:08:41;;;;;;;9.68;5.40;;;18.70;81.50;;;;;;5072708;28;20434;-59
2022/05/22 00:11:07;;;;;;;8.05;4.95;;;18.70;81.90;;;;;;5073091;28;20110;-58
2022/05/22 00:13:32;;;;;;;8.98;5.32;;;18.70;82.00;;;;;;5072952;28;20029;-58
2022/05/22 00:18:42;;;;;;;8.93;5.50;;;18.60;82.00;;;;;;5073419;28;20035;-59
2022/05/22 00:21:07;;;;;;;12.38;7.07;;;18.70;82.30;;;;;;5073273;28;20020;-66
2022/05/22 00:23:33;;;;;;;10.75;7.10;;;18.60;82.10;;;;;;5073437;28;20465;-69
2022/05/22 00:25:59;;;;;;;16.13;8.55;;;18.60;82.00;;;;;;5055271;28;20366;-69
2022/05/22 00:28:25;;;;;;;16.83;8.90;;;18.60;82.10;;;;;;5072805;28;20103;-71
2022/05/22 00:30:50;;;;;;;14.52;10.10;;;18.50;82.30;;;;;;5072999;28;20025;-68
2022/05/22 00:33:16;;;;;;;12.65;9.20;;;18.60;82.30;;;;;;5073382;28;20032;-69
2022/05/22 00:35:41;;;;;;;13.18;8.43;;;18.50;82.30;;;;;;5072994;28;20478;-70
2022/05/22 00:38:07;;;;;;;12.18;8.30;;;18.50;82.80;;;;;;5073229;28;20024;-66
2022/05/22 00:40:34;;;;;;;14.20;8.85;;;18.50;82.70;;;;;;5073063;28;20021;-70
2022/05/22 00:43:00;;;;;;;13.05;7.93;;;18.50;82.60;;;;;;5072769;28;20040;-70
2022/05/22 00:45:26;;;;;;;14.10;8.55;;;18.50;82.80;;;;;;5071147;28;20012;-70
2022/05/22 00:47:53;;;;;;;11.80;7.55;;;18.50;82.90;;;;;;5055387;28;20481;-71
2022/05/22 00:50:20;;;;;;;13.05;7.30;;;18.40;82.70;;;;;;5051446;28;20009;-69
2022/05/22 00:52:53;;;;;;;11.73;6.65;;;18.40;82.90;;;;;;5052301;28;20108;-69
2022/05/22 00:55:28;;;;;;;10.52;7.00;;;18.40;83.00;;;;;;5052881;28;20029;-68
2022/05/22 00:58:00;;;;;;;11.75;6.38;;;18.40;83.00;;;;;;5052436;28;20048;-70
2022/05/22 01:00:33;;;;;;;11.60;6.60;;;18.40;82.90;;;;;;5052921;28;20029;-70
2022/05/22 01:05:48;;;;;;;11.02;6.75;;;18.40;82.90;;;;;;5053146;28;20520;-69
2022/05/22 01:08:14;;;;;;;13.55;6.45;;;18.40;83.30;;;;;;5052740;28;20025;-70
2022/05/22 01:10:47;;;;;;;9.80;6.53;;;18.40;83.50;;;;;;5051957;28;20024;-70
2022/05/22 01:13:16;;;;;;;9.63;6.75;;;18.30;83.80;;;;;;5052828;28;20108;-70
2022/05/22 01:15:42;;;;;;;14.52;6.50;;;18.30;84.00;;;;;;5052751;28;20413;-69
2022/05/22 01:18:08;;;;;;;10.48;6.65;;;18.30;84.10;;;;;;5052618;28;20028;-59
2022/05/22 01:20:33;;;;;;;13.38;6.72;;;18.30;84.20;;;;;;5055824;28;20052;-67
2022/05/22 01:22:59;;;;;;;9.43;5.93;;;18.20;83.80;;;;;;5056774;28;20100;-63
2022/05/22 01:25:24;;;;;;;12.20;6.25;;;18.30;84.00;;;;;;5056400;28;20382;-60
2022/05/22 01:27:50;;;;;;;12.07;6.07;;;18.20;84.30;;;;;;5056545;28;20029;-60
2022/05/22 01:30:20;;;;;;;14.38;6.30;;;18.20;84.60;;;;;;5056494;28;20025;-58
2022/05/22 01:32:47;;;;;;;11.75;6.13;;;18.20;84.60;;;;;;5056426;28;20060;-59
2022/05/22 01:35:17;;;;;;;8.13;6.18;;;18.10;84.80;;;;;;5056544;28;20099;-59
2022/05/22 01:37:43;;;;;;;10.13;5.75;;;18.10;84.80;;;;;;5056587;28;20029;-60
2022/05/22 01:40:10;;;;;;;8.45;6.38;;;18.10;84.90;;;;;;5056151;28;20028;-59
2022/05/22 01:42:36;;;;;;;11.30;6.05;;;18.20;84.80;;;;;;5056004;28;20040;-59
2022/05/22 01:45:03;;;;;;;8.52;6.07;;;18.10;85.00;;;;;;5068801;28;20029;-61
2022/05/22 01:47:32;;;;;;;9.15;6.55;;;18.10;84.90;;;;;;5075872;28;20066;-58
2022/05/22 01:49:58;;;;;;;9.98;5.60;;;18.00;84.90;;;;;;5076347;28;20115;-58
2022/05/22 01:52:23;;;;;;;12.15;6.30;;;18.00;85.10;;;;;;5075783;28;20558;-59
2022/05/22 01:54:49;;;;;;;12.98;6.38;;;18.00;85.20;;;;;;5076023;28;20448;-58
2022/05/22 01:57:15;;;;;;;12.20;6.95;;;18.00;84.90;;;;;;5076093;28;20028;-59
2022/05/22 01:59:40;;;;;;;11.10;6.88;;;18.00;85.00;;;;;;5076029;28;20029;-59
2022/05/22 02:02:06;;;;;;;10.73;5.85;;;18.00;85.10;;;;;;5076063;28;20012;-58
2022/05/22 02:04:32;;;;;;;10.07;5.30;;;18.00;85.10;;;;;;5075937;28;20048;-58
2022/05/22 02:09:42;;;;;;;10.70;5.75;;;17.90;84.90;;;;;;5075774;28;20060;-59
2022/05/22 02:12:08;;;;;;;9.38;5.95;;;17.90;85.20;;;;;;5075383;28;20481;-61
2022/05/22 02:14:33;;;;;;;8.77;6.35;;;17.90;85.00;;;;;;5075641;28;20503;-61
2022/05/22 02:16:59;;;;;;;9.32;6.15;;;17.80;85.00;;;;;;5075782;28;20024;-59
2022/05/22 02:19:25;;;;;;;8.73;5.60;;;17.80;85.00;;;;;;5075478;28;20020;-61
2022/05/22 02:21:51;;;;;;;12.63;6.53;;;17.90;85.20;;;;;;5075727;28;20116;-66
2022/05/22 02:24:16;;;;;;;11.35;6.95;;;17.80;85.10;;;;;;5075532;28;20028;-70
2022/05/22 02:26:42;;;;;;;8.80;6.00;;;17.90;85.10;;;;;;5075605;28;20029;-70
2022/05/22 02:29:08;;;;;;;9.38;5.45;;;17.80;85.40;;;;;;5075352;28;20074;-70
2022/05/22 02:31:34;;;;;;;12.93;6.20;;;17.80;85.50;;;;;;5074618;28;20036;-60
2022/05/22 02:33:59;;;;;;;11.68;5.70;;;17.70;85.70;;;;;;5063932;28;20070;-70
2022/05/22 02:36:25;;;;;;;9.05;5.75;;;17.50;86.40;;;;;;5069769;28;20036;-68
2022/05/22 02:38:51;;;;;;;8.30;5.53;;;17.50;86.60;;;;;;5074543;28;20028;-70
2022/05/22 02:41:17;;;;;;;9.52;5.93;;;17.50;86.70;;;;;;5075219;28;20544;-70
2022/05/22 02:43:43;;;;;;;7.18;5.13;;;17.50;86.80;;;;;;5074046;28;20027;-70
2022/05/22 02:46:11;;;;;;;7.97;5.30;;;17.50;86.80;;;;;;5074540;28;20082;-69
2022/05/22 02:48:37;;;;;;;10.05;5.43;;;17.50;87.10;;;;;;5074601;28;20027;-70
2022/05/22 02:51:02;;;;;;;7.07;5.50;;;17.50;87.20;;;;;;5074719;28;20120;-67
2022/05/22 02:53:28;;;;;;;9.20;4.80;;;17.50;87.10;;;;;;5074606;28;20051;-70
2022/05/22 02:55:53;;;;;;;8.48;5.03;;;17.40;87.10;;;;;;5074797;28;20035;-67
2022/05/22 02:58:19;;;;;;;10.30;5.45;;;17.40;87.20;;;;;;5074695;28;20020;-70
2022/05/22 03:00:44;;;;;;;8.32;5.10;;;17.40;87.30;;;;;;5074603;28;20017;-68
2022/05/22 03:03:10;;;;;;;7.90;4.78;;;17.40;87.60;;;;;;5056132;28;20025;-70
2022/05/22 03:08:20;;;;;;;9.63;4.88;;;17.40;87.40;;;;;;5074420;28;20039;-70
2022/05/22 03:10:45;;;;;;;9.45;5.65;;;17.40;87.40;;;;;;5073909;28;20080;-69
2022/05/22 03:13:12;;;;;;;9.73;5.25;;;17.40;87.60;;;;;;5074679;28;20484;-70
2022/05/22 03:15:38;;;;;;;10.10;5.45;;;17.40;87.60;;;;;;5074492;28;20378;-70
2022/05/22 03:18:04;;;;;;;9.73;5.47;;;17.40;88.30;;;;;;5074332;28;20081;-70
2022/05/22 03:20:30;;;;;;;12.30;5.40;;;17.30;87.80;;;;;;5073158;28;20108;-69
2022/05/22 03:22:58;;;;;;;12.02;5.20;;;17.30;87.80;;;;;;5073529;28;20025;-68
2022/05/22 03:25:23;;;;;;;10.27;5.80;;;17.20;87.90;;;;;;5074129;28;20028;-70
2022/05/22 03:27:49;;;;;;;9.18;5.57;;;17.20;88.00;;;;;;5074167;28;20170;-71
2022/05/22 03:30:14;;;;;;;9.90;5.05;;;17.20;88.10;;;;;;5074047;28;20032;-67
2022/05/22 03:32:40;;;;;;;9.48;5.13;;;17.30;88.00;;;;;;5073670;28;20032;-67
2022/05/22 03:35:06;;;;;;;10.23;5.10;;;17.20;88.10;;;;;;5053781;28;20039;-70
2022/05/22 03:37:32;;;;;;;9.43;5.00;;;17.20;88.30;;;;;;5059014;28;20027;-69
2022/05/22 03:39:57;;;;;;;8.45;5.00;;;17.20;88.20;;;;;;5073335;28;20042;-58
2022/05/22 03:42:24;;;;;;;9.63;5.38;;;17.20;88.00;;;;;;5073677;28;20082;-71
2022/05/22 03:44:50;;;;;;;11.35;4.78;;;17.30;87.90;;;;;;5073859;28;20032;-60
2022/05/22 03:47:16;;;;;;;12.38;5.40;;;17.20;88.20;;;;;;5074175;28;20048;-58
2022/05/22 03:49:41;;;;;;;8.18;4.82;;;17.20;88.40;;;;;;5073614;28;20059;-59
2022/05/22 03:52:07;;;;;;;11.68;5.40;;;17.10;88.30;;;;;;5073334;28;20028;-59
2022/05/22 03:54:33;;;;;;;10.55;4.90;;;17.20;88.40;;;;;;5073830;28;20032;-58
2022/05/22 03:56:58;;;;;;;10.15;4.95;;;17.10;88.40;;;;;;5073732;28;20048;-58
2022/05/22 03:59:25;;;;;;;12.40;5.30;;;17.00;88.60;;;;;;5073786;28;20052;-59
2022/05/22 04:01:51;;;;;;;8.38;4.88;;;17.00;88.90;;;;;;5073356;28;20024;-58
2022/05/22 04:04:17;;;;;;;10.18;4.85;;;17.00;89.10;;;;;;5073529;28;20012;-58
2022/05/22 04:06:43;;;;;;;9.35;5.13;;;17.00;88.90;;;;;;5073602;28;20031;-60
2022/05/22 04:09:09;;;;;;;11.23;5.72;;;17.10;88.70;;;;;;5073657;28;20013;-58
2022/05/22 04:11:34;;;;;;;9.57;5.30;;;17.10;88.30;;;;;;5073177;28;20127;-58
2022/05/22 04:14:02;;;;;;;12.77;5.32;;;17.00;88.40;;;;;;5073143;28;20035;-58
2022/05/22 04:16:27;;;;;;;10.35;5.72;;;17.00;88.40;;;;;;5073488;28;20119;-59
2022/05/22 04:18:53;;;;;;;10.80;5.95;;;17.00;88.40;;;;;;5073270;28;20056;-59
2022/05/22 04:21:18;;;;;;;8.88;5.47;;;17.00;88.60;;;;;;5073421;28;20020;-61
2022/05/22 04:26:31;;;;;;;8.43;5.78;;;16.90;89.20;;;;;;5073379;28;20554;-71
2022/05/22 04:28:57;;;;;;;8.35;5.15;;;17.00;89.40;;;;;;5073126;28;20052;-66
2022/05/22 04:31:23;;;;;;;11.57;5.20;;;17.00;89.30;;;;;;5073266;28;20060;-71
2022/05/22 04:33:48;;;;;;;7.78;5.45;;;17.00;89.40;;;;;;5073022;28;20496;-71
2022/05/22 04:36:14;;;;;;;9.50;5.63;;;17.00;89.40;;;;;;5073054;28;20024;-72
2022/05/22 04:38:39;;;;;;;10.52;5.30;;;16.90;89.60;;;;;;5073471;28;20373;-71
2022/05/22 04:41:05;;;;;;;9.63;6.25;;;17.00;90.30;;;;;;5072779;28;20588;-70
2022/05/22 04:43:31;;;;;;;8.40;5.63;;;17.00;90.00;;;;;;5073146;28;20107;-71
2022/05/22 04:45:58;;;;;;;8.65;5.80;;;17.00;89.80;;;;;;5073171;28;20099;-70
2022/05/22 04:48:26;;;;;;;11.10;5.60;;;17.00;90.00;;;;;;5072882;28;20025;-71
2022/05/22 04:50:53;;;;;;;10.20;5.88;;;17.00;90.10;;;;;;5072863;28;20112;-70
2022/05/22 04:53:22;;;;;;;9.82;5.50;;;17.00;90.10;;;;;;5072778;28;20060;-71
2022/05/22 04:55:48;;;;;;;11.27;6.32;;;17.00;90.10;;;;;;5072960;28;20103;-71
2022/05/22 04:58:16;;;;;;;10.27;6.05;;;17.00;90.00;;;;;;5072872;28;20511;-70
2022/05/22 05:00:41;;;;;;;11.57;6.05;;;17.00;90.00;;;;;;5070619;28;20465;-72
2022/05/22 05:03:07;;;;;;;8.63;5.63;;;17.00;90.00;;;;;;5071645;28;20050;-61
2022/05/22 05:05:33;;;;;;;8.85;5.80;;;17.00;90.10;;;;;;5072215;28;20134;-71
2022/05/22 05:07:59;;;;;;;8.38;6.10;;;17.00;90.00;;;;;;5071530;28;20481;-71
2022/05/22 05:10:24;;;;;;;8.85;5.63;;;17.00;90.10;;;;;;5054663;28;20474;-71
2022/05/22 05:12:51;;;;;;;8.82;5.88;;;17.10;90.00;;;;;;5072601;28;20067;-71
2022/05/22 05:15:19;;;;;;;9.13;5.97;;;17.10;90.00;;;;;;5072882;28;20016;-67
2022/05/22 05:17:45;;;;;;;13.60;6.35;;;17.10;90.20;;;;;;5072546;28;20100;-68
2022/05/22 05:20:14;;;;;;;12.10;6.35;;;17.10;90.30;;;;;;5072719;28;20455;-70
2022/05/22 05:22:40;;;;;;;9.68;5.68;;;17.10;90.20;;;;;;5072618;28;20035;-71
2022/05/22 05:25:06;;;;;;;10.18;5.78;;;17.20;90.20;;;;;;5072635;28;20493;-67
2022/05/22 05:27:32;;;;;;;10.93;6.50;;;17.10;90.10;;;;;;5072775;28;20038;-71
2022/05/22 05:29:58;;;;;;;10.32;6.30;;;17.10;90.20;;;;;;5072760;28;20452;-71
2022/05/22 05:32:24;;;;;;;12.18;6.40;;;17.20;90.40;;;;;;5072256;28;20036;-71
2022/05/22 05:34:56;;;;;;;10.27;6.10;;;17.20;90.10;;;;;;5072593;28;20476;-70
2022/05/22 05:37:22;;;;;;;13.82;6.80;;;17.20;90.10;;;;;;5072494;28;20017;-71
2022/05/22 05:39:47;;;;;;;11.45;5.65;;;17.20;90.10;;;;;;5072783;28;20047;-71
2022/05/22 05:42:13;;;;;;;12.15;6.32;;;17.20;90.00;;;;;;5072285;28;20037;-70
2022/05/22 05:44:38;;;;;;;12.40;5.78;;;17.30;90.10;;;;;;5072618;28;20099;-71
2022/05/22 05:47:04;;;;;;;12.52;5.32;;;17.40;89.80;;;;;;5072084;28;20048;-71
2022/05/22 05:49:30;;;;;;;10.70;5.18;;;17.40;90.00;;;;;;5072225;28;20021;-71
2022/05/22 05:51:55;;;;;;;9.82;5.30;;;17.50;90.10;;;;;;5072462;28;20043;-58
2022/05/22 05:54:21;;;;;;;11.88;5.25;;;17.60;90.10;;;;;;5072324;28;20020;-62
2022/05/22 05:56:46;;;;;;;11.48;5.20;;;17.70;89.80;;;;;;5072614;28;20024;-62
2022/05/22 05:59:12;;;;;;;8.82;5.03;;;17.70;89.80;;;;;;5072354;28;20063;-62
2022/05/22 06:01:38;;;;;;;10.35;4.70;;;17.80;89.20;;;;;;5072161;28;20074;-58
2022/05/22 06:04:04;;;;;;;9.10;4.38;;;17.90;88.90;;;;;;5072258;28;20027;-61
2022/05/22 06:06:29;;;;;;;11.75;3.95;;;17.90;87.00;;;;;;5073780;28;20469;-58
2022/05/22 06:08:55;;;;;;;9.80;3.42;;;18.00;86.10;;;;;;5075910;28;20030;-62
2022/05/22 06:11:21;;;;;;;9.45;3.58;;;18.10;86.00;;;;;;5075387;28;20051;-59
2022/05/22 06:13:47;;;;;;;11.73;4.13;;;18.10;86.10;;;;;;5075683;28;20025;-58
2022/05/22 06:16:13;;;;;;;7.75;3.22;;;18.20;85.40;;;;;;5075494;28;20066;-59
2022/05/22 06:18:39;;;;;;;6.80;3.15;;;18.20;84.70;;;;;;5075664;28;20020;-59
2022/05/22 06:21:11;;;;;;;8.10;3.33;;;18.30;85.10;;;;;;5075752;28;20492;-59
2022/05/22 06:23:38;;;;;;;8.55;3.30;;;18.40;85.60;;;;;;5075616;28;20052;-67
2022/05/22 06:26:05;;;;;;;7.95;3.03;;;18.40;84.60;;;;;;5075681;28;20469;-67
2022/05/22 06:28:30;;;;;;;6.47;3.20;;;18.50;84.20;;;;;;5075582;28;20024;-64
2022/05/22 06:30:56;;;;;;;9.82;3.38;;;18.50;84.20;;;;;;5075124;28;20017;-65
2022/05/22 06:33:21;;;;;;;9.82;3.00;;;18.60;83.60;;;;;;5075447;28;20032;-63
2022/05/22 06:35:47;;;;;;;7.50;2.65;;;18.60;84.20;;;;;;5072892;28;20012;-65
2022/05/22 06:40:57;;;;;;;8.88;3.10;;;18.80;84.30;;;;;;5068003;28;20507;-66
2022/05/22 06:43:22;;;;;;;4.90;2.83;;;18.90;83.30;;;;;;5059499;28;20025;-60
2022/05/22 06:45:50;;;;;;;7.97;3.00;;;18.90;83.80;;;;;;5074449;28;20031;-70
2022/05/22 06:48:16;;;;;;;6.18;2.47;;;18.90;83.80;;;;;;5074447;28;20495;-69
2022/05/22 06:50:42;;;;;;;7.95;2.63;;;19.00;83.20;;;;;;5074854;28;20021;-70
2022/05/22 06:53:07;;;;;;;6.95;2.75;;;19.00;82.50;;;;;;5075143;28;20027;-65
2022/05/22 06:55:33;;;;;;;6.90;2.47;;;19.10;81.30;;;;;;5075017;28;20016;-70
2022/05/22 06:57:58;;;;;;;8.65;2.20;;;19.10;79.80;;;;;;5074931;28;20031;-68
2022/05/22 07:00:24;;;;;;;7.75;2.50;;;19.20;80.40;;;;;;5072383;28;20103;-68
2022/05/22 07:02:52;;;;;;;7.72;2.67;;;19.30;80.70;;;;;;5070194;28;20032;-67
2022/05/22 07:05:18;;;;;;;6.80;2.72;;;19.30;80.00;;;;;;5064546;28;20032;-60
2022/05/22 07:07:44;;;;;;;5.47;2.25;;;19.40;79.80;;;;;;5094806;28;20133;-70
2022/05/22 07:10:10;;;;;;;9.55;2.88;;;19.40;80.20;;;;;;5092165;28;20020;-69
2022/05/22 07:12:36;;;;;;;6.68;2.10;;;19.50;79.70;;;;;;5073402;28;20481;-66
2022/05/22 07:15:03;;;;;;;5.97;1.88;;;19.50;78.70;;;;;;5073443;28;20107;-69
2022/05/22 07:17:29;;;;;;;5.72;1.95;;;19.60;78.90;;;;;;5073018;28;20025;-70
2022/05/22 07:19:56;;;;;;;6.43;2.53;;;19.60;79.10;;;;;;5074307;28;20025;-72
2022/05/22 07:22:23;;;;;;;6.32;1.70;;;19.70;78.80;;;;;;5074597;28;20461;-70
2022/05/22 07:24:49;;;;;;;4.65;1.85;;;19.80;77.00;;;;;;5074407;28;20008;-70
2022/05/22 07:27:15;;;;;;;4.85;1.52;;;19.80;77.60;;;;;;5074289;28;20028;-61
2022/05/22 07:29:41;;;;;;;3.20;1.63;;;19.80;79.70;;;;;;5074294;28;20047;-70
2022/05/22 07:32:07;;;;;;;7.32;2.05;;;19.80;81.10;;;;;;5074067;28;20078;-70
2022/05/22 07:34:33;;;;;;;6.13;1.90;;;20.00;78.00;;;;;;5073364;28;20035;-70
2022/05/22 07:37:02;;;;;;;3.00;1.58;;;20.00;78.90;;;;;;5072754;28;20031;-70
2022/05/22 07:39:28;;;;;;;6.10;1.80;;;20.10;79.60;;;;;;5073699;28;20012;-70
2022/05/22 07:41:54;;;;;;;8.52;2.00;;;20.20;74.50;;;;;;5073505;28;20390;-69
2022/05/22 07:44:20;;;;;;;5.78;1.75;;;20.30;77.70;;;;;;5074169;28;20028;-59
2022/05/22 07:46:46;;;;;;;8.75;1.88;;;20.30;77.00;;;;;;5073980;28;20492;-59
2022/05/22 07:52:10;;;;;;;9.43;2.03;;;20.70;72.10;;;;;;5037636;28;20040;-61
2022/05/22 07:54:39;;;;;;;7.32;2.10;;;20.60;74.40;;;;;;5072630;28;21319;-62
2022/05/22 07:57:06;;;;;;;5.38;2.30;;;20.80;70.60;;;;;;5071199;28;20090;-68
2022/05/22 07:59:36;;;;;;;10.77;2.58;;;21.00;69.70;;;;;;5082631;28;20034;-62
2022/05/22 08:02:05;;;;;;;8.07;2.00;;;21.10;69.20;;;;;;5077283;28;20077;-67
2022/05/22 08:04:31;;;;;;;6.40;2.22;;;21.00;70.10;;;;;;5076083;28;20023;-60
2022/05/22 08:06:56;;;;;;;8.95;3.20;;;21.00;72.10;;;;;;5075504;28;20036;-60
2022/05/22 08:09:22;;;;;;;11.85;4.50;;;21.20;70.60;;;;;;5079388;28;20019;-62
2022/05/22 08:11:48;;;;;;;10.27;3.08;;;21.40;69.40;;;;;;5079459;28;20409;-64
2022/05/22 08:14:15;;;;;;;8.82;3.20;;;21.40;69.60;;;;;;5081350;28;20024;-62
2022/05/22 08:16:44;;;;;;;6.05;2.92;;;21.40;69.90;;;;;;5083688;28;20028;-61
2022/05/22 08:19:10;;;;;;;12.43;3.90;;;21.40;71.60;;;;;;5080079;28;20024;-60
2022/05/22 08:21:36;;;;;;;8.18;3.60;;;21.40;70.70;;;;;;5076611;28;20032;-60
2022/05/22 08:24:02;;;;;;;9.43;3.30;;;21.40;70.60;;;;;;5073900;28;20028;-69
2022/05/22 08:26:28;;;;;;;7.88;2.83;;;21.40;71.80;;;;;;5077431;28;20023;-67
2022/05/22 08:28:54;;;;;;;8.15;2.75;;;21.50;70.10;;;;;;5075563;28;20424;-67
2022/05/22 08:31:20;;;;;;;14.98;3.42;;;21.50;72.30;;;;;;5070584;28;20040;-66
2022/05/22 08:33:46;;;;;;;8.90;3.67;;;21.50;72.80;;;;;;5069119;28;20020;-64
2022/05/22 08:36:11;;;;;;;8.43;2.95;;;21.50;71.50;;;;;;5071003;28;20025;-67
2022/05/22 08:38:38;;;;;;;10.50;2.90;;;21.60;71.30;;;;;;5079405;28;20361;-59
2022/05/22 08:41:25;;;;;;;12.70;3.55;;;21.60;70.80;;;;;;5073534;28;20228;-66
2022/05/22 08:44:11;;;;;;;9.65;2.90;;;21.70;70.30;;;;;;5067516;28;20610;-66
2022/05/22 08:47:01;;;;;;;13.27;3.45;;;21.70;72.00;;;;;;5066784;28;20021;-67
2022/05/22 08:49:51;;;;;;;12.25;2.50;;;21.70;70.60;;;;;;5068777;28;20029;-66
2022/05/22 08:52:45;;;;;;;6.80;2.63;;;21.70;72.50;;;;;;5076672;28;20056;-66
2022/05/22 08:55:14;;;;;;;8.30;2.50;;;21.70;71.40;;;;;;5079774;28;20069;-66
2022/05/22 09:00:32;;;;;;;13.55;2.80;;;21.90;69.80;;;;;;5082174;28;20078;-65
2022/05/22 09:03:09;;;;;;;8.90;2.33;;;21.80;71.80;;;;;;5071419;28;20473;-66
2022/05/22 09:05:36;;;;;;;7.65;2.40;;;21.70;71.80;;;;;;5073116;28;20385;-67
2022/05/22 09:08:08;;;;;;;7.80;2.53;;;21.70;72.00;;;;;;5072881;28;20024;-66
2022/05/22 09:10:37;;;;;;;10.32;3.35;;;21.70;71.50;;;;;;5068064;28;20396;-67
2022/05/22 09:13:33;;;;;;;9.05;2.95;;;21.70;70.80;;;;;;5083068;28;20135;-67
2022/05/22 09:16:14;;;;;;;11.30;2.90;;;21.70;71.50;;;;;;5073493;28;20032;-67
2022/05/22 09:19:07;;;;;;;9.93;2.78;;;21.80;70.80;;;;;;5064930;28;20033;-62
2022/05/22 09:21:56;;;;;;;11.48;2.75;;;21.80;70.40;;;;;;5069814;28;20043;-64
2022/05/22 09:24:36;;;;;;;8.25;2.95;;;21.80;70.40;;;;;;5068532;28;20115;-66
2022/05/22 09:27:08;;;;;;;5.68;2.38;;;21.80;70.30;;;;;;5068390;28;20028;-62
2022/05/22 09:29:40;;;;;;;21.75;4.60;;;21.80;70.90;;;;;;5076401;28;20013;-60
2022/05/22 09:32:05;;;;;;;7.00;2.78;;;21.90;68.70;;;;;;5074032;28;20491;-60
2022/05/22 09:35:09;;;;;;;10.63;3.15;;;21.90;68.60;;;;;;5071056;28;20024;-58
2022/05/22 09:37:46;;;;;;;8.75;2.88;;;22.00;68.00;;;;;;5081431;28;20024;-59
2022/05/22 09:40:39;;;;;;;10.88;3.58;;;22.10;66.80;;;;;;5073052;28;20530;-59
2022/05/22 09:43:12;;;;;;;7.20;2.15;;;22.10;66.50;;;;;;5079594;28;20491;-58
2022/05/22 09:45:51;;;;;;;8.45;2.60;;;22.10;68.70;;;;;;5054056;28;20031;-59
2022/05/22 09:48:31;;;;;;;8.73;2.47;;;22.10;69.10;;;;;;5047665;28;20447;-62
2022/05/22 09:51:16;;;;;;;7.45;2.95;;;22.10;68.90;;;;;;5072734;28;20461;-60
2022/05/22 09:53:56;;;;;;;9.13;2.78;;;22.20;67.20;;;;;;5088392;28;20063;-62
2022/05/22 09:56:41;;;;;;;7.22;2.40;;;22.20;68.50;;;;;;5080465;28;20085;-62
2022/05/22 09:59:34;;;;;;;9.27;2.33;;;22.20;68.20;;;;;;5072636;28;20032;-59
2022/05/22 10:02:02;;;;;;;;;;;22.20;68.60;;;;;;5063923;28;20028;-59
2022/05/22 10:04:32;;;;;;;7.50;2.58;;;22.10;68.80;;;;;;5079915;28;19915;-61
2022/05/22 10:07:22;;;;;;;7.82;2.92;;;22.20;67.90;;;;;;5079890;28;20016;-59
2022/05/22 10:10:11;;;;;;;10.70;3.15;;;22.20;67.50;;;;;;5076516;28;21272;-59
2022/05/22 10:12:58;;;;;;;9.70;2.67;;;22.20;66.90;;;;;;5068676;28;20055;-64
2022/05/22 10:15:31;;;;;;;5.97;2.25;;;22.20;66.20;;;;;;5051882;28;20029;-58
2022/05/22 10:18:22;;;;;;;7.72;2.65;;;22.20;66.10;;;;;;5068176;28;20028;-66
2022/05/22 10:21:05;;;;;;;11.05;3.03;;;22.10;66.70;;;;;;5075614;28;20412;-58
2022/05/22 10:23:48;;;;;;;8.60;2.78;;;22.20;66.70;;;;;;5080280;28;20025;-64
2022/05/22 10:26:35;;;;;;;8.02;2.30;;;22.20;66.70;;;;;;5075811;28;20021;-66
2022/05/22 10:29:22;;;;;;;8.40;2.83;;;22.20;66.90;;;;;;5074478;28;20024;-68
2022/05/22 10:32:08;;;;;;;7.97;2.05;;;22.20;67.10;;;;;;5070075;28;20074;-70
2022/05/22 10:34:42;;;;;;;6.50;2.38;;;22.30;66.70;;;;;;5071052;28;20112;-62
2022/05/22 10:37:28;;;;;;;9.18;2.55;;;22.30;66.50;;;;;;5068329;28;20028;-64
2022/05/22 10:39:53;;;;;;;7.25;2.03;;;22.30;67.20;;;;;;5074822;28;20361;-63
2022/05/22 10:42:48;;;;;;;8.80;2.13;;;22.30;65.90;;;;;;5083205;28;20145;-60
2022/05/22 10:45:20;;;;;;;6.05;1.98;;;22.30;66.30;;;;;;5066983;28;20067;-60
2022/05/22 10:47:46;;;;;;;6.80;2.20;;;22.40;65.60;;;;;;5082321;28;20032;-62
2022/05/22 10:50:24;;;;;;;8.68;1.95;;;22.40;65.90;;;;;;5073544;28;20374;-59
2022/05/22 10:52:50;;;;;;;6.05;1.95;;;22.30;66.60;;;;;;5074177;28;20040;-59
2022/05/22 10:55:28;;;;;;;8.63;2.22;;;22.30;68.10;;;;;;5070451;28;20097;-59
2022/05/22 10:58:02;;;;;;;9.57;2.55;;;22.40;68.90;;;;;;5066835;28;20122;-68
2022/05/22 11:00:28;;;;;;;6.00;2.20;;;22.40;66.70;;;;;;5074643;28;20546;-61
2022/05/22 11:02:54;;;;;;;8.30;2.58;;;22.40;67.10;;;;;;5068272;28;20028;-66
2022/05/22 11:05:29;;;;;;;10.98;3.17;;;22.40;66.10;;;;;;5066663;28;20024;-59
2022/05/22 11:07:57;;;;;;;10.77;2.47;;;22.40;66.40;;;;;;5063241;28;20172;-58
2022/05/22 11:10:27;;;;;;;13.80;4.40;;;22.40;65.60;;;;;;5074518;28;20017;-58
2022/05/22 11:13:08;;;;;;;7.63;3.40;;;22.40;67.40;;;;;;5073289;28;20036;-71
2022/05/22 11:15:37;;;;;;;9.50;4.32;;;22.40;66.30;;;;;;5074264;28;20519;-59
2022/05/22 11:18:06;;;;;;;17.20;7.65;;;22.40;69.10;;;;;;5076643;28;20024;-61
2022/05/22 11:20:32;;;;;;;17.67;9.70;;;22.40;69.50;;;;;;5074611;28;20372;-60
2022/05/22 11:23:25;;;;;;;8.55;5.00;;;22.40;69.10;;;;;;5075853;28;20024;-59
2022/05/22 11:25:56;;;;;;;;;;;22.40;67.80;;;;;;5073977;28;20035;-59
2022/05/22 11:28:52;;;;;;;7.47;3.10;;;22.40;67.30;;;;;;5071773;28;20023;-59
2022/05/22 11:31:36;;;;;;;12.68;2.63;;;22.40;66.70;;;;;;5072312;28;20473;-59
2022/05/22 11:34:56;;;;;;;6.63;2.35;;;22.50;65.40;;;;;;5074111;28;20039;-70
2022/05/22 11:37:32;;;;;;;6.78;2.25;;;22.50;65.10;;;;;;5036909;28;20041;-59
2022/05/22 11:40:18;;;;;;;7.03;1.88;;;22.50;64.80;;;;;;5068236;28;20510;-58
2022/05/22 11:42:44;;;;;;;7.10;1.83;;;22.50;63.50;;;;;;5070237;28;20027;-59
2022/05/22 11:45:38;;;;;;;8.48;2.65;;;22.50;63.90;;;;;;5072835;28;20033;-70
2022/05/22 11:48:22;;;;;;;11.52;3.13;;;22.50;67.80;;;;;;5062834;28;20486;-62
2022/05/22 11:50:48;;;;;;;7.70;2.10;;;22.60;67.70;;;;;;5073498;28;20036;-57
2022/05/22 11:53:41;;;;;;;6.28;2.30;;;22.60;62.80;;;;;;5070965;28;20044;-59
2022/05/22 11:56:28;;;;;;;8.65;2.70;;;22.60;64.20;;;;;;5073711;28;20040;-59
2022/05/22 11:59:02;;;;;;;8.52;2.10;;;22.60;66.80;;;;;;5071009;28;20059;-64
2022/05/22 12:01:38;;;;;;;10.27;2.38;;;22.60;66.90;;;;;;5072382;28;20052;-58
2022/05/22 12:04:24;;;;;;;4.70;1.75;;;22.60;66.80;;;;;;5074123;28;20477;-58
2022/05/22 12:07:28;;;;;;;7.75;2.08;;;22.60;64.80;;;;;;5066519;28;20025;-58
2022/05/22 12:10:25;;;;;;;5.55;1.55;;;22.60;63.60;;;;;;5070469;28;20507;-60
2022/05/22 12:13:09;;;;;;;4.80;1.70;;;22.70;66.50;;;;;;5069535;28;20045;-60
2022/05/22 12:15:46;;;;;;;4.93;1.55;;;22.70;67.00;;;;;;5075917;28;20161;-59
2022/05/22 12:18:20;;;;;;;6.00;1.98;;;22.70;64.40;;;;;;5080009;28;20115;-60
2022/05/22 12:21:20;;;;;;;5.80;1.60;;;22.70;65.00;;;;;;5078727;28;20031;-63
2022/05/22 12:24:08;;;;;;;8.25;1.73;;;22.70;66.20;;;;;;5052460;28;20093;-59
2022/05/22 12:26:35;;;;;;;12.80;2.45;;;22.70;67.00;;;;;;5077636;28;20024;-59
2022/05/22 12:29:04;;;;;;;4.88;1.58;;;22.70;66.20;;;;;;5068761;28;20477;-61
2022/05/22 12:31:58;;;;;;;5.68;1.60;;;22.70;66.60;;;;;;5066212;28;20039;-70
2022/05/22 12:34:39;;;;;;;7.60;1.75;;;22.70;61.80;;;;;;5064149;28;20033;-65
2022/05/22 12:37:10;;;;;;;6.93;1.95;;;22.70;66.10;;;;;;5076183;28;20024;-64
2022/05/22 12:39:44;;;;;;;6.55;1.73;;;22.80;66.70;;;;;;5068041;28;20770;-70
2022/05/22 12:42:20;;;;;;;5.80;1.63;;;22.80;64.20;;;;;;5065459;28;20052;-71
2022/05/22 12:44:46;;;;;;;6.68;2.20;;;22.80;62.10;;;;;;5064643;28;20017;-68
2022/05/22 12:47:15;;;;;;;7.20;1.60;;;22.80;63.90;;;;;;5066294;28;20012;-67
2022/05/22 12:49:55;;;;;;;4.07;1.55;;;22.80;66.30;;;;;;5068314;28;20038;-72
2022/05/22 12:52:24;;;;;;;4.30;1.23;;;22.80;66.70;;;;;;5066675;28;20040;-67
2022/05/22 12:55:34;;;;;;;5.28;1.42;;;22.80;66.50;;;;;;5068181;28;20470;-70
2022/05/22 12:58:01;;;;;;;5.53;1.55;;;22.80;65.30;;;;;;5066194;28;20119;-72
2022/05/22 13:00:33;;;;;;;9.68;2.25;;;22.80;65.40;;;;;;5063908;28;20024;-72
2022/05/22 13:03:14;;;;;;;6.18;2.17;;;22.80;63.80;;;;;;5067445;28;20423;-65
2022/05/22 13:05:42;;;;;;;5.53;2.00;;;22.80;62.30;;;;;;5067781;28;20512;-70
2022/05/22 13:08:20;;;;;;;6.10;1.90;;;22.80;62.70;;;;;;5071038;28;20128;-72
2022/05/22 13:10:54;;;;;;;5.43;1.75;;;22.80;65.00;;;;;;5067956;28;21370;-65
2022/05/22 13:13:29;;;;;;;4.05;1.63;;;22.80;63.00;;;;;;5070538;28;20435;-70
2022/05/22 13:16:03;;;;;;;6.22;1.50;;;22.80;65.30;;;;;;5051753;28;20089;-71
2022/05/22 13:18:29;;;;;;;6.40;1.52;;;22.90;64.60;;;;;;5072707;28;20027;-67
2022/05/22 13:21:01;;;;;;;5.30;1.55;;;22.90;62.00;;;;;;5084522;28;20024;-70
2022/05/22 13:23:36;;;;;;;5.50;1.35;;;22.90;60.60;;;;;;5067240;28;20036;-69